sensor_id;sensor_type;location;lat;lon;timestamp;P1;durP1;ratioP1;P2;durP2;ratioP2
71790;SDS011;59638;52.126;5.434;2023-07-28T00:01:11;8.48;;;7.57;;
71790;SDS011;59638;52.126;5.434;2023-07-28T00:03:38;9.90;;;7.30;;
71790;SDS011;59638;52.126;5.434;2023-07-28T00:06:04;12.48;;;7.90;;
71790;SDS011;59638;52.126;5.434;2023-07-28T00:08:31;11.38;;;8.82;;
71790;SDS011;59638;52.126;5.434;2023-07-28T00:10:57;13.23;;;8.37;;
71790;SDS011;59638;52.126;5.434;2023-07-28T00:13:24;16.80;;;8.43;;
71790;SDS011;59638;52.126;5.434;2023-07-28T00:15:50;14.18;;;9.60;;
71790;SDS011;59638;52.126;5.434;2023-07-28T00:18:17;14.32;;;9.00;;
71790;SDS011;59638;52.126;5.434;2023-07-28T00:20:44;9.85;;;8.85;;
71790;SDS011;59638;52.126;5.434;2023-07-28T00:23:11;13.27;;;8.10;;
71790;SDS011;59638;52.126;5.434;2023-07-28T00:25:37;11.10;;;7.90;;
71790;SDS011;59638;52.126;5.434;2023-07-28T00:28:04;9.00;;;7.85;;
71790;SDS011;59638;52.126;5.434;2023-07-28T00:30:30;9.88;;;7.85;;
71790;SDS011;59638;52.126;5.434;2023-07-28T00:32:57;8.45;;;7.47;;
71790;SDS011;59638;52.126;5.434;2023-07-28T00:35:24;16.97;;;7.87;;
71790;SDS011;59638;52.126;5.434;2023-07-28T00:37:50;9.50;;;7.20;;
71790;SDS011;59638;52.126;5.434;2023-07-28T00:40:17;11.02;;;7.20;;
71790;SDS011;59638;52.126;5.434;2023-07-28T00:42:43;14.48;;;6.82;;
71790;SDS011;59638;52.126;5.434;2023-07-28T00:45:10;13.68;;;6.45;;
71790;SDS011;59638;52.126;5.434;2023-07-28T00:47:36;8.73;;;6.37;;
71790;SDS011;59638;52.126;5.434;2023-07-28T00:50:03;9.52;;;6.15;;
71790;SDS011;59638;52.126;5.434;2023-07-28T00:52:30;10.48;;;6.38;;
71790;SDS011;59638;52.126;5.434;2023-07-28T00:54:56;11.32;;;5.13;;
71790;SDS011;59638;52.126;5.434;2023-07-28T00:57:23;8.68;;;5.88;;
71790;SDS011;59638;52.126;5.434;2023-07-28T00:59:50;10.27;;;4.80;;
71790;SDS011;59638;52.126;5.434;2023-07-28T01:02:17;7.88;;;5.63;;
71790;SDS011;59638;52.126;5.434;2023-07-28T01:04:44;9.68;;;5.50;;
71790;SDS011;59638;52.126;5.434;2023-07-28T01:07:14;10.30;;;5.00;;
71790;SDS011;59638;52.126;5.434;2023-07-28T01:09:47;13.18;;;6.07;;
71790;SDS011;59638;52.126;5.434;2023-07-28T01:12:36;12.77;;;5.10;;
71790;SDS011;59638;52.126;5.434;2023-07-28T01:15:03;6.07;;;4.97;;
71790;SDS011;59638;52.126;5.434;2023-07-28T01:17:29;10.00;;;4.90;;
71790;SDS011;59638;52.126;5.434;2023-07-28T01:19:56;10.10;;;5.22;;
71790;SDS011;59638;52.126;5.434;2023-07-28T01:22:36;13.60;;;5.43;;
71790;SDS011;59638;52.126;5.434;2023-07-28T01:27:49;12.27;;;5.43;;
71790;SDS011;59638;52.126;5.434;2023-07-28T01:30:18;13.35;;;5.13;;
71790;SDS011;59638;52.126;5.434;2023-07-28T01:32:47;8.95;;;5.60;;
71790;SDS011;59638;52.126;5.434;2023-07-28T01:35:15;10.88;;;5.35;;
71790;SDS011;59638;52.126;5.434;2023-07-28T01:37:41;8.17;;;4.57;;
71790;SDS011;59638;52.126;5.434;2023-07-28T01:40:08;13.23;;;5.00;;
71790;SDS011;59638;52.126;5.434;2023-07-28T01:42:34;14.65;;;5.82;;
71790;SDS011;59638;52.126;5.434;2023-07-28T01:45:01;14.07;;;4.65;;
71790;SDS011;59638;52.126;5.434;2023-07-28T01:47:27;13.60;;;5.00;;
71790;SDS011;59638;52.126;5.434;2023-07-28T01:49:54;13.43;;;5.50;;
71790;SDS011;59638;52.126;5.434;2023-07-28T01:52:20;7.20;;;4.65;;
71790;SDS011;59638;52.126;5.434;2023-07-28T01:54:48;12.20;;;5.43;;
71790;SDS011;59638;52.126;5.434;2023-07-28T01:57:16;12.15;;;5.57;;
71790;SDS011;59638;52.126;5.434;2023-07-28T01:59:43;12.00;;;5.55;;
71790;SDS011;59638;52.126;5.434;2023-07-28T02:02:10;11.77;;;6.23;;
71790;SDS011;59638;52.126;5.434;2023-07-28T02:04:36;12.68;;;6.35;;
71790;SDS011;59638;52.126;5.434;2023-07-28T02:07:03;13.98;;;6.57;;
71790;SDS011;59638;52.126;5.434;2023-07-28T02:09:29;18.27;;;6.32;;
71790;SDS011;59638;52.126;5.434;2023-07-28T02:11:56;19.25;;;6.18;;
71790;SDS011;59638;52.126;5.434;2023-07-28T02:14:22;13.57;;;6.20;;
71790;SDS011;59638;52.126;5.434;2023-07-28T02:16:49;12.93;;;6.15;;
71790;SDS011;59638;52.126;5.434;2023-07-28T02:19:15;11.82;;;5.95;;
71790;SDS011;59638;52.126;5.434;2023-07-28T02:21:41;14.95;;;5.95;;
71790;SDS011;59638;52.126;5.434;2023-07-28T02:24:08;12.70;;;5.88;;
71790;SDS011;59638;52.126;5.434;2023-07-28T02:26:34;17.30;;;6.30;;
71790;SDS011;59638;52.126;5.434;2023-07-28T02:29:01;15.63;;;6.15;;
71790;SDS011;59638;52.126;5.434;2023-07-28T02:31:28;12.32;;;6.60;;
71790;SDS011;59638;52.126;5.434;2023-07-28T02:33:54;16.27;;;7.03;;
71790;SDS011;59638;52.126;5.434;2023-07-28T02:36:21;12.73;;;7.35;;
71790;SDS011;59638;52.126;5.434;2023-07-28T02:38:47;19.97;;;8.07;;
71790;SDS011;59638;52.126;5.434;2023-07-28T02:41:14;21.40;;;8.48;;
71790;SDS011;59638;52.126;5.434;2023-07-28T02:43:40;18.23;;;8.57;;
71790;SDS011;59638;52.126;5.434;2023-07-28T02:46:07;24.90;;;9.30;;
71790;SDS011;59638;52.126;5.434;2023-07-28T02:48:33;17.42;;;7.95;;
71790;SDS011;59638;52.126;5.434;2023-07-28T02:51:00;14.00;;;8.57;;
71790;SDS011;59638;52.126;5.434;2023-07-28T02:53:26;19.42;;;8.40;;
71790;SDS011;59638;52.126;5.434;2023-07-28T02:55:53;20.80;;;8.52;;
71790;SDS011;59638;52.126;5.434;2023-07-28T02:58:20;26.55;;;9.88;;
71790;SDS011;59638;52.126;5.434;2023-07-28T03:00:46;24.17;;;9.60;;
71790;SDS011;59638;52.126;5.434;2023-07-28T03:03:13;22.43;;;9.20;;
71790;SDS011;59638;52.126;5.434;2023-07-28T03:05:40;24.95;;;8.70;;
71790;SDS011;59638;52.126;5.434;2023-07-28T03:08:06;22.70;;;10.02;;
71790;SDS011;59638;52.126;5.434;2023-07-28T03:10:32;25.15;;;9.15;;
71790;SDS011;59638;52.126;5.434;2023-07-28T03:12:59;24.38;;;9.73;;
71790;SDS011;59638;52.126;5.434;2023-07-28T03:15:25;21.43;;;8.80;;
71790;SDS011;59638;52.126;5.434;2023-07-28T03:17:52;23.95;;;10.20;;
71790;SDS011;59638;52.126;5.434;2023-07-28T03:20:21;19.90;;;9.60;;
71790;SDS011;59638;52.126;5.434;2023-07-28T03:22:47;26.85;;;10.85;;
71790;SDS011;59638;52.126;5.434;2023-07-28T03:25:14;24.55;;;10.10;;
71790;SDS011;59638;52.126;5.434;2023-07-28T03:27:40;21.90;;;9.53;;
71790;SDS011;59638;52.126;5.434;2023-07-28T03:30:07;26.60;;;10.43;;
71790;SDS011;59638;52.126;5.434;2023-07-28T03:32:37;18.17;;;9.10;;
71790;SDS011;59638;52.126;5.434;2023-07-28T03:35:03;34.83;;;10.32;;
71790;SDS011;59638;52.126;5.434;2023-07-28T03:37:32;27.73;;;10.55;;
71790;SDS011;59638;52.126;5.434;2023-07-28T03:39:58;25.70;;;10.00;;
71790;SDS011;59638;52.126;5.434;2023-07-28T03:42:25;37.33;;;10.98;;
71790;SDS011;59638;52.126;5.434;2023-07-28T03:44:51;37.63;;;11.65;;
71790;SDS011;59638;52.126;5.434;2023-07-28T03:47:18;29.20;;;10.38;;
71790;SDS011;59638;52.126;5.434;2023-07-28T03:49:45;26.73;;;10.73;;
71790;SDS011;59638;52.126;5.434;2023-07-28T03:52:12;28.57;;;10.33;;
71790;SDS011;59638;52.126;5.434;2023-07-28T03:54:38;28.60;;;11.38;;
71790;SDS011;59638;52.126;5.434;2023-07-28T03:57:05;30.92;;;10.32;;
71790;SDS011;59638;52.126;5.434;2023-07-28T03:59:31;32.88;;;10.95;;
71790;SDS011;59638;52.126;5.434;2023-07-28T04:01:58;28.77;;;11.05;;
71790;SDS011;59638;52.126;5.434;2023-07-28T04:04:24;31.33;;;10.67;;
71790;SDS011;59638;52.126;5.434;2023-07-28T04:06:51;30.42;;;11.43;;
71790;SDS011;59638;52.126;5.434;2023-07-28T04:09:18;26.05;;;11.05;;
71790;SDS011;59638;52.126;5.434;2023-07-28T04:11:45;31.70;;;11.70;;
71790;SDS011;59638;52.126;5.434;2023-07-28T04:14:12;34.60;;;11.93;;
71790;SDS011;59638;52.126;5.434;2023-07-28T04:16:40;29.73;;;10.97;;
71790;SDS011;59638;52.126;5.434;2023-07-28T04:19:06;31.05;;;10.95;;
71790;SDS011;59638;52.126;5.434;2023-07-28T04:21:33;40.90;;;11.80;;
71790;SDS011;59638;52.126;5.434;2023-07-28T04:23:59;33.53;;;12.38;;
71790;SDS011;59638;52.126;5.434;2023-07-28T04:26:26;37.13;;;11.88;;
71790;SDS011;59638;52.126;5.434;2023-07-28T04:28:52;29.80;;;11.87;;
71790;SDS011;59638;52.126;5.434;2023-07-28T04:31:19;33.42;;;11.57;;
71790;SDS011;59638;52.126;5.434;2023-07-28T04:33:45;26.65;;;11.40;;
71790;SDS011;59638;52.126;5.434;2023-07-28T04:36:11;29.63;;;12.25;;
71790;SDS011;59638;52.126;5.434;2023-07-28T04:38:38;41.65;;;13.15;;
71790;SDS011;59638;52.126;5.434;2023-07-28T04:41:04;34.97;;;12.57;;
71790;SDS011;59638;52.126;5.434;2023-07-28T04:43:31;41.28;;;12.45;;
71790;SDS011;59638;52.126;5.434;2023-07-28T04:45:57;38.33;;;12.13;;
71790;SDS011;59638;52.126;5.434;2023-07-28T04:48:24;32.10;;;11.32;;
71790;SDS011;59638;52.126;5.434;2023-07-28T04:50:50;39.45;;;12.30;;
71790;SDS011;59638;52.126;5.434;2023-07-28T04:53:17;30.83;;;11.90;;
71790;SDS011;59638;52.126;5.434;2023-07-28T04:55:43;36.47;;;11.30;;
71790;SDS011;59638;52.126;5.434;2023-07-28T04:58:10;36.20;;;12.68;;
71790;SDS011;59638;52.126;5.434;2023-07-28T05:00:36;37.47;;;12.18;;
71790;SDS011;59638;52.126;5.434;2023-07-28T05:03:03;44.58;;;12.27;;
71790;SDS011;59638;52.126;5.434;2023-07-28T05:05:29;34.33;;;12.40;;
71790;SDS011;59638;52.126;5.434;2023-07-28T05:07:56;26.65;;;10.88;;
71790;SDS011;59638;52.126;5.434;2023-07-28T05:10:22;42.70;;;12.43;;
71790;SDS011;59638;52.126;5.434;2023-07-28T05:12:49;33.47;;;11.00;;
71790;SDS011;59638;52.126;5.434;2023-07-28T05:15:15;34.38;;;11.52;;
71790;SDS011;59638;52.126;5.434;2023-07-28T05:17:42;44.37;;;11.27;;
71790;SDS011;59638;52.126;5.434;2023-07-28T05:20:09;33.70;;;12.18;;
71790;SDS011;59638;52.126;5.434;2023-07-28T05:22:35;28.80;;;10.85;;
71790;SDS011;59638;52.126;5.434;2023-07-28T05:25:02;34.42;;;11.63;;
71790;SDS011;59638;52.126;5.434;2023-07-28T05:27:28;28.55;;;10.80;;
71790;SDS011;59638;52.126;5.434;2023-07-28T05:29:55;33.37;;;11.10;;
71790;SDS011;59638;52.126;5.434;2023-07-28T05:32:21;28.67;;;10.80;;
71790;SDS011;59638;52.126;5.434;2023-07-28T05:34:48;27.70;;;10.00;;
71790;SDS011;59638;52.126;5.434;2023-07-28T05:37:14;27.75;;;10.38;;
71790;SDS011;59638;52.126;5.434;2023-07-28T05:39:41;37.03;;;10.82;;
71790;SDS011;59638;52.126;5.434;2023-07-28T05:42:07;31.97;;;10.50;;
71790;SDS011;59638;52.126;5.434;2023-07-28T05:44:34;28.77;;;11.68;;
71790;SDS011;59638;52.126;5.434;2023-07-28T05:47:00;25.33;;;9.75;;
71790;SDS011;59638;52.126;5.434;2023-07-28T05:49:27;28.95;;;11.02;;
71790;SDS011;59638;52.126;5.434;2023-07-28T05:51:53;29.90;;;10.30;;
71790;SDS011;59638;52.126;5.434;2023-07-28T05:54:20;26.17;;;10.53;;
71790;SDS011;59638;52.126;5.434;2023-07-28T05:56:46;22.77;;;9.00;;
71790;SDS011;59638;52.126;5.434;2023-07-28T05:59:13;24.75;;;9.60;;
71790;SDS011;59638;52.126;5.434;2023-07-28T06:01:39;24.50;;;9.45;;
71790;SDS011;59638;52.126;5.434;2023-07-28T06:04:06;19.27;;;9.77;;
71790;SDS011;59638;52.126;5.434;2023-07-28T06:06:32;21.50;;;9.67;;
71790;SDS011;59638;52.126;5.434;2023-07-28T06:08:59;19.95;;;8.68;;
71790;SDS011;59638;52.126;5.434;2023-07-28T06:11:25;22.63;;;10.13;;
71790;SDS011;59638;52.126;5.434;2023-07-28T06:13:52;19.95;;;10.07;;
71790;SDS011;59638;52.126;5.434;2023-07-28T06:16:19;21.48;;;9.38;;
71790;SDS011;59638;52.126;5.434;2023-07-28T06:18:45;20.67;;;9.00;;
71790;SDS011;59638;52.126;5.434;2023-07-28T06:21:12;19.02;;;8.23;;
71790;SDS011;59638;52.126;5.434;2023-07-28T06:23:38;21.35;;;8.88;;
71790;SDS011;59638;52.126;5.434;2023-07-28T06:26:05;18.00;;;8.98;;
71790;SDS011;59638;52.126;5.434;2023-07-28T06:28:31;18.92;;;9.13;;
71790;SDS011;59638;52.126;5.434;2023-07-28T06:30:58;18.03;;;8.07;;
71790;SDS011;59638;52.126;5.434;2023-07-28T06:33:25;14.40;;;8.40;;
71790;SDS011;59638;52.126;5.434;2023-07-28T06:35:51;13.45;;;8.68;;
71790;SDS011;59638;52.126;5.434;2023-07-28T06:38:18;17.75;;;9.05;;
71790;SDS011;59638;52.126;5.434;2023-07-28T06:40:45;18.92;;;10.27;;
71790;SDS011;59638;52.126;5.434;2023-07-28T06:43:11;16.47;;;8.57;;
71790;SDS011;59638;52.126;5.434;2023-07-28T06:45:38;10.68;;;8.05;;
71790;SDS011;59638;52.126;5.434;2023-07-28T06:48:05;17.00;;;8.32;;
71790;SDS011;59638;52.126;5.434;2023-07-28T06:50:32;14.18;;;9.02;;
71790;SDS011;59638;52.126;5.434;2023-07-28T06:52:58;19.38;;;8.50;;
71790;SDS011;59638;52.126;5.434;2023-07-28T06:55:25;14.10;;;9.53;;
71790;SDS011;59638;52.126;5.434;2023-07-28T06:57:51;13.25;;;8.35;;
71790;SDS011;59638;52.126;5.434;2023-07-28T07:00:17;17.40;;;9.02;;
71790;SDS011;59638;52.126;5.434;2023-07-28T07:02:44;16.40;;;9.23;;
71790;SDS011;59638;52.126;5.434;2023-07-28T07:05:11;19.60;;;9.75;;
71790;SDS011;59638;52.126;5.434;2023-07-28T07:07:38;18.37;;;9.40;;
71790;SDS011;59638;52.126;5.434;2023-07-28T07:10:05;12.85;;;8.82;;
71790;SDS011;59638;52.126;5.434;2023-07-28T07:12:32;16.55;;;9.75;;
71790;SDS011;59638;52.126;5.434;2023-07-28T07:14:59;14.82;;;8.95;;
71790;SDS011;59638;52.126;5.434;2023-07-28T07:17:25;18.15;;;9.45;;
71790;SDS011;59638;52.126;5.434;2023-07-28T07:19:52;18.90;;;8.93;;
71790;SDS011;59638;52.126;5.434;2023-07-28T07:22:18;19.92;;;10.43;;
71790;SDS011;59638;52.126;5.434;2023-07-28T07:24:45;20.80;;;9.50;;
71790;SDS011;59638;52.126;5.434;2023-07-28T07:27:11;13.43;;;9.25;;
71790;SDS011;59638;52.126;5.434;2023-07-28T07:29:38;21.25;;;10.70;;
71790;SDS011;59638;52.126;5.434;2023-07-28T07:32:05;15.23;;;10.07;;
71790;SDS011;59638;52.126;5.434;2023-07-28T07:34:33;16.38;;;9.80;;
71790;SDS011;59638;52.126;5.434;2023-07-28T07:37:00;14.15;;;9.02;;
71790;SDS011;59638;52.126;5.434;2023-07-28T07:39:27;22.02;;;9.43;;
71790;SDS011;59638;52.126;5.434;2023-07-28T07:41:53;19.83;;;9.98;;
71790;SDS011;59638;52.126;5.434;2023-07-28T07:44:20;14.47;;;9.23;;
71790;SDS011;59638;52.126;5.434;2023-07-28T07:46:47;10.30;;;8.00;;
71790;SDS011;59638;52.126;5.434;2023-07-28T07:49:13;16.52;;;9.05;;
71790;SDS011;59638;52.126;5.434;2023-07-28T07:51:40;15.35;;;7.85;;
71790;SDS011;59638;52.126;5.434;2023-07-28T07:54:07;12.00;;;7.80;;
71790;SDS011;59638;52.126;5.434;2023-07-28T07:56:33;13.97;;;7.97;;
71790;SDS011;59638;52.126;5.434;2023-07-28T07:58:59;12.52;;;6.63;;
71790;SDS011;59638;52.126;5.434;2023-07-28T08:01:26;9.07;;;6.15;;
71790;SDS011;59638;52.126;5.434;2023-07-28T08:03:53;12.60;;;7.10;;
71790;SDS011;59638;52.126;5.434;2023-07-28T08:06:19;6.70;;;5.28;;
71790;SDS011;59638;52.126;5.434;2023-07-28T08:08:45;10.07;;;6.10;;
71790;SDS011;59638;52.126;5.434;2023-07-28T08:11:12;9.77;;;5.95;;
71790;SDS011;59638;52.126;5.434;2023-07-28T08:13:39;9.07;;;5.75;;
71790;SDS011;59638;52.126;5.434;2023-07-28T08:16:05;9.95;;;5.93;;
71790;SDS011;59638;52.126;5.434;2023-07-28T08:18:31;10.38;;;5.63;;
71790;SDS011;59638;52.126;5.434;2023-07-28T08:20:58;9.53;;;5.77;;
71790;SDS011;59638;52.126;5.434;2023-07-28T08:23:25;9.52;;;5.35;;
71790;SDS011;59638;52.126;5.434;2023-07-28T08:25:51;9.02;;;4.60;;
71790;SDS011;59638;52.126;5.434;2023-07-28T08:28:21;7.68;;;4.03;;
71790;SDS011;59638;52.126;5.434;2023-07-28T08:30:54;7.43;;;3.70;;
71790;SDS011;59638;52.126;5.434;2023-07-28T08:33:22;5.00;;;3.47;;
71790;SDS011;59638;52.126;5.434;2023-07-28T08:35:49;4.95;;;2.47;;
71790;SDS011;59638;52.126;5.434;2023-07-28T08:38:15;6.80;;;2.80;;
71790;SDS011;59638;52.126;5.434;2023-07-28T08:40:43;7.85;;;2.97;;
71790;SDS011;59638;52.126;5.434;2023-07-28T08:43:10;7.13;;;2.50;;
71790;SDS011;59638;52.126;5.434;2023-07-28T08:45:37;7.47;;;2.40;;
71790;SDS011;59638;52.126;5.434;2023-07-28T08:48:04;7.75;;;2.33;;
71790;SDS011;59638;52.126;5.434;2023-07-28T08:50:31;11.65;;;2.15;;
71790;SDS011;59638;52.126;5.434;2023-07-28T08:52:57;4.60;;;2.47;;
71790;SDS011;59638;52.126;5.434;2023-07-28T08:55:25;4.57;;;1.60;;
71790;SDS011;59638;52.126;5.434;2023-07-28T08:57:52;7.40;;;2.07;;
71790;SDS011;59638;52.126;5.434;2023-07-28T09:00:19;5.10;;;1.90;;
71790;SDS011;59638;52.126;5.434;2023-07-28T09:02:48;5.35;;;1.75;;
71790;SDS011;59638;52.126;5.434;2023-07-28T09:05:21;5.72;;;1.35;;
71790;SDS011;59638;52.126;5.434;2023-07-28T09:07:50;6.70;;;1.90;;
71790;SDS011;59638;52.126;5.434;2023-07-28T09:10:18;4.63;;;1.80;;
71790;SDS011;59638;52.126;5.434;2023-07-28T09:12:47;4.47;;;1.80;;
71790;SDS011;59638;52.126;5.434;2023-07-28T09:15:15;3.85;;;1.73;;
71790;SDS011;59638;52.126;5.434;2023-07-28T09:17:45;8.18;;;1.00;;
71790;SDS011;59638;52.126;5.434;2023-07-28T09:20:12;7.05;;;1.52;;
71790;SDS011;59638;52.126;5.434;2023-07-28T09:22:44;2.37;;;1.27;;
71790;SDS011;59638;52.126;5.434;2023-07-28T09:25:11;3.05;;;1.25;;
71790;SDS011;59638;52.126;5.434;2023-07-28T09:27:39;3.90;;;1.75;;
71790;SDS011;59638;52.126;5.434;2023-07-28T09:30:06;5.30;;;1.50;;
71790;SDS011;59638;52.126;5.434;2023-07-28T09:32:33;5.50;;;1.42;;
71790;SDS011;59638;52.126;5.434;2023-07-28T09:35:10;3.50;;;1.00;;
71790;SDS011;59638;52.126;5.434;2023-07-28T09:37:39;1.90;;;0.80;;
71790;SDS011;59638;52.126;5.434;2023-07-28T09:40:08;2.47;;;0.70;;
71790;SDS011;59638;52.126;5.434;2023-07-28T09:42:39;4.72;;;1.10;;
71790;SDS011;59638;52.126;5.434;2023-07-28T09:45:06;1.50;;;0.88;;
71790;SDS011;59638;52.126;5.434;2023-07-28T09:47:51;4.47;;;1.20;;
71790;SDS011;59638;52.126;5.434;2023-07-28T09:50:24;5.55;;;1.05;;
71790;SDS011;59638;52.126;5.434;2023-07-28T09:52:54;7.28;;;1.27;;
71790;SDS011;59638;52.126;5.434;2023-07-28T09:55:28;3.80;;;1.00;;
71790;SDS011;59638;52.126;5.434;2023-07-28T09:57:55;4.47;;;1.52;;
71790;SDS011;59638;52.126;5.434;2023-07-28T10:00:23;5.17;;;1.70;;
71790;SDS011;59638;52.126;5.434;2023-07-28T10:02:50;6.13;;;1.33;;
71790;SDS011;59638;52.126;5.434;2023-07-28T10:05:17;5.15;;;1.40;;
71790;SDS011;59638;52.126;5.434;2023-07-28T10:07:44;4.28;;;1.50;;
71790;SDS011;59638;52.126;5.434;2023-07-28T10:10:13;3.15;;;1.30;;
71790;SDS011;59638;52.126;5.434;2023-07-28T10:12:41;3.63;;;1.53;;
71790;SDS011;59638;52.126;5.434;2023-07-28T10:15:12;4.35;;;1.77;;
71790;SDS011;59638;52.126;5.434;2023-07-28T10:17:45;3.03;;;1.13;;
71790;SDS011;59638;52.126;5.434;2023-07-28T10:22:53;1.95;;;1.48;;
71790;SDS011;59638;52.126;5.434;2023-07-28T10:25:27;4.07;;;1.37;;
71790;SDS011;59638;52.126;5.434;2023-07-28T10:27:54;2.45;;;1.23;;
71790;SDS011;59638;52.126;5.434;2023-07-28T10:30:21;2.42;;;1.63;;
71790;SDS011;59638;52.126;5.434;2023-07-28T10:32:48;2.40;;;1.52;;
71790;SDS011;59638;52.126;5.434;2023-07-28T10:37:45;4.20;;;1.40;;
71790;SDS011;59638;52.126;5.434;2023-07-28T10:42:54;2.72;;;1.58;;
71790;SDS011;59638;52.126;5.434;2023-07-28T10:45:22;3.28;;;1.35;;
71790;SDS011;59638;52.126;5.434;2023-07-28T10:47:51;1.90;;;1.50;;
71790;SDS011;59638;52.126;5.434;2023-07-28T10:50:18;3.70;;;1.40;;
71790;SDS011;59638;52.126;5.434;2023-07-28T10:52:46;2.70;;;1.50;;
71790;SDS011;59638;52.126;5.434;2023-07-28T10:55:16;3.63;;;1.48;;
71790;SDS011;59638;52.126;5.434;2023-07-28T10:57:47;2.78;;;1.60;;
71790;SDS011;59638;52.126;5.434;2023-07-28T11:00:16;2.78;;;1.67;;
71790;SDS011;59638;52.126;5.434;2023-07-28T11:02:47;2.87;;;1.73;;
71790;SDS011;59638;52.126;5.434;2023-07-28T11:05:19;4.90;;;2.17;;
71790;SDS011;59638;52.126;5.434;2023-07-28T11:07:48;3.17;;;2.20;;
71790;SDS011;59638;52.126;5.434;2023-07-28T11:10:15;3.42;;;2.30;;
71790;SDS011;59638;52.126;5.434;2023-07-28T11:12:43;5.13;;;2.80;;
71790;SDS011;59638;52.126;5.434;2023-07-28T11:15:12;5.53;;;1.93;;
71790;SDS011;59638;52.126;5.434;2023-07-28T11:17:43;6.28;;;3.20;;
71790;SDS011;59638;52.126;5.434;2023-07-28T11:20:15;4.70;;;2.80;;
71790;SDS011;59638;52.126;5.434;2023-07-28T11:22:46;6.85;;;3.95;;
71790;SDS011;59638;52.126;5.434;2023-07-28T11:25:19;6.40;;;3.25;;
71790;SDS011;59638;52.126;5.434;2023-07-28T11:27:47;7.50;;;3.50;;
71790;SDS011;59638;52.126;5.434;2023-07-28T11:30:14;7.38;;;3.05;;
71790;SDS011;59638;52.126;5.434;2023-07-28T11:32:43;6.72;;;3.03;;
71790;SDS011;59638;52.126;5.434;2023-07-28T11:35:11;3.40;;;2.60;;
71790;SDS011;59638;52.126;5.434;2023-07-28T11:37:40;8.50;;;2.70;;
71790;SDS011;59638;52.126;5.434;2023-07-28T11:40:08;4.83;;;3.10;;
71790;SDS011;59638;52.126;5.434;2023-07-28T11:42:46;6.13;;;3.30;;
71790;SDS011;59638;52.126;5.434;2023-07-28T11:45:15;6.70;;;3.90;;
71790;SDS011;59638;52.126;5.434;2023-07-28T11:47:56;5.75;;;3.90;;
71790;SDS011;59638;52.126;5.434;2023-07-28T11:50:27;5.72;;;4.55;;
71790;SDS011;59638;52.126;5.434;2023-07-28T11:52:58;7.20;;;3.90;;
71790;SDS011;59638;52.126;5.434;2023-07-28T11:55:25;6.72;;;5.05;;
71790;SDS011;59638;52.126;5.434;2023-07-28T11:57:52;8.57;;;4.28;;
71790;SDS011;59638;52.126;5.434;2023-07-28T12:00:29;5.53;;;4.55;;
71790;SDS011;59638;52.126;5.434;2023-07-28T12:03:09;4.78;;;4.40;;
71790;SDS011;59638;52.126;5.434;2023-07-28T12:05:38;6.43;;;3.83;;
71790;SDS011;59638;52.126;5.434;2023-07-28T12:08:32;10.30;;;3.38;;
71790;SDS011;59638;52.126;5.434;2023-07-28T12:11:00;4.93;;;2.97;;
71790;SDS011;59638;52.126;5.434;2023-07-28T12:13:30;5.32;;;2.50;;
71790;SDS011;59638;52.126;5.434;2023-07-28T12:15:58;4.93;;;2.80;;
71790;SDS011;59638;52.126;5.434;2023-07-28T12:18:29;3.80;;;2.20;;
71790;SDS011;59638;52.126;5.434;2023-07-28T12:20:58;5.53;;;1.88;;
71790;SDS011;59638;52.126;5.434;2023-07-28T12:23:26;5.38;;;3.03;;
71790;SDS011;59638;52.126;5.434;2023-07-28T12:25:55;4.78;;;2.80;;
71790;SDS011;59638;52.126;5.434;2023-07-28T12:28:24;6.78;;;2.75;;
71790;SDS011;59638;52.126;5.434;2023-07-28T12:30:52;5.27;;;2.50;;
71790;SDS011;59638;52.126;5.434;2023-07-28T12:33:22;2.42;;;1.98;;
71790;SDS011;59638;52.126;5.434;2023-07-28T12:35:49;2.40;;;1.73;;
71790;SDS011;59638;52.126;5.434;2023-07-28T12:38:18;1.63;;;1.27;;
71790;SDS011;59638;52.126;5.434;2023-07-28T12:40:47;2.40;;;1.10;;
71790;SDS011;59638;52.126;5.434;2023-07-28T12:43:17;3.87;;;1.30;;
71790;SDS011;59638;52.126;5.434;2023-07-28T12:45:46;2.22;;;1.48;;
71790;SDS011;59638;52.126;5.434;2023-07-28T12:48:16;2.08;;;1.50;;
71790;SDS011;59638;52.126;5.434;2023-07-28T12:50:45;4.55;;;1.95;;
71790;SDS011;59638;52.126;5.434;2023-07-28T12:53:12;3.17;;;2.00;;
71790;SDS011;59638;52.126;5.434;2023-07-28T12:55:43;2.87;;;1.67;;
71790;SDS011;59638;52.126;5.434;2023-07-28T12:58:12;2.50;;;1.83;;
71790;SDS011;59638;52.126;5.434;2023-07-28T13:00:41;5.75;;;1.30;;
71790;SDS011;59638;52.126;5.434;2023-07-28T13:03:11;2.50;;;1.73;;
71790;SDS011;59638;52.126;5.434;2023-07-28T13:05:38;1.92;;;0.98;;
71790;SDS011;59638;52.126;5.434;2023-07-28T13:08:04;1.83;;;1.47;;
71790;SDS011;59638;52.126;5.434;2023-07-28T13:10:34;2.30;;;1.55;;
71790;SDS011;59638;52.126;5.434;2023-07-28T13:13:03;3.45;;;1.88;;
71790;SDS011;59638;52.126;5.434;2023-07-28T13:15:29;2.08;;;1.30;;
71790;SDS011;59638;52.126;5.434;2023-07-28T13:17:56;3.78;;;1.60;;
71790;SDS011;59638;52.126;5.434;2023-07-28T13:20:24;2.77;;;1.40;;
71790;SDS011;59638;52.126;5.434;2023-07-28T13:22:50;2.40;;;1.35;;
71790;SDS011;59638;52.126;5.434;2023-07-28T13:25:17;4.50;;;1.75;;
71790;SDS011;59638;52.126;5.434;2023-07-28T13:27:43;3.05;;;2.22;;
71790;SDS011;59638;52.126;5.434;2023-07-28T13:30:10;3.55;;;3.17;;
71790;SDS011;59638;52.126;5.434;2023-07-28T13:32:37;4.30;;;2.80;;
71790;SDS011;59638;52.126;5.434;2023-07-28T13:35:03;2.15;;;1.90;;
71790;SDS011;59638;52.126;5.434;2023-07-28T13:37:30;2.50;;;2.05;;
71790;SDS011;59638;52.126;5.434;2023-07-28T13:39:57;3.17;;;1.73;;
71790;SDS011;59638;52.126;5.434;2023-07-28T13:42:23;2.78;;;1.98;;
71790;SDS011;59638;52.126;5.434;2023-07-28T13:44:49;2.60;;;1.40;;
71790;SDS011;59638;52.126;5.434;2023-07-28T13:47:24;2.70;;;1.25;;
71790;SDS011;59638;52.126;5.434;2023-07-28T13:49:51;2.50;;;1.70;;
71790;SDS011;59638;52.126;5.434;2023-07-28T13:52:17;4.47;;;2.25;;
71790;SDS011;59638;52.126;5.434;2023-07-28T13:54:47;5.00;;;2.95;;
71790;SDS011;59638;52.126;5.434;2023-07-28T13:57:17;3.93;;;2.30;;
71790;SDS011;59638;52.126;5.434;2023-07-28T13:59:44;2.50;;;1.70;;
71790;SDS011;59638;52.126;5.434;2023-07-28T14:02:11;2.72;;;1.70;;
71790;SDS011;59638;52.126;5.434;2023-07-28T14:04:37;2.83;;;1.88;;
71790;SDS011;59638;52.126;5.434;2023-07-28T14:07:04;4.93;;;1.90;;
71790;SDS011;59638;52.126;5.434;2023-07-28T14:09:30;2.67;;;2.03;;
71790;SDS011;59638;52.126;5.434;2023-07-28T14:11:57;5.20;;;2.25;;
71790;SDS011;59638;52.126;5.434;2023-07-28T14:14:23;5.85;;;2.00;;
71790;SDS011;59638;52.126;5.434;2023-07-28T14:16:50;4.00;;;2.22;;
71790;SDS011;59638;52.126;5.434;2023-07-28T14:19:16;2.75;;;1.85;;
71790;SDS011;59638;52.126;5.434;2023-07-28T14:21:43;3.23;;;1.97;;
71790;SDS011;59638;52.126;5.434;2023-07-28T14:24:09;2.03;;;1.50;;
71790;SDS011;59638;52.126;5.434;2023-07-28T14:26:36;3.92;;;1.75;;
71790;SDS011;59638;52.126;5.434;2023-07-28T14:29:02;4.57;;;1.83;;
71790;SDS011;59638;52.126;5.434;2023-07-28T14:31:29;2.53;;;1.83;;
71790;SDS011;59638;52.126;5.434;2023-07-28T14:33:55;2.40;;;1.57;;
71790;SDS011;59638;52.126;5.434;2023-07-28T14:36:22;2.50;;;1.98;;
71790;SDS011;59638;52.126;5.434;2023-07-28T14:38:49;3.83;;;2.20;;
71790;SDS011;59638;52.126;5.434;2023-07-28T14:41:15;3.08;;;1.85;;
71790;SDS011;59638;52.126;5.434;2023-07-28T14:43:42;3.33;;;1.95;;
71790;SDS011;59638;52.126;5.434;2023-07-28T14:46:08;3.03;;;1.83;;
71790;SDS011;59638;52.126;5.434;2023-07-28T14:48:35;4.20;;;1.95;;
71790;SDS011;59638;52.126;5.434;2023-07-28T14:51:01;2.60;;;2.10;;